Flight Track Log - Related Links

Times and Time Zones

All times are in EDT time to prevent confusion due to time zone crossing. See the LAK145 flight status page for this flight to view local times or setup timezone preferences in your user account.

Time Position Orientation Groundspeed Altitude Reporting Facility
EDT Latitude Longitude Course Direction KTS MPH feet Rate Location/Type
Wed 03:39:27 PM 44.5833 -92.5333 224° Southwest 146 168 3,200  Level Minneapolis TRACON
Wed 03:40:33 PM 44.5333 -92.6000 224° Southwest 226 260 5,100 1,676 Climbing Minneapolis TRACON
Wed 03:41:18 PM 44.5178 -92.6408 242° Southwest 229 264 6,300 1,528 Climbing Minneapolis Center
Wed 03:42:19 PM 44.4739 -92.7208 232° Southwest 252 290 7,800 829 Climbing Minneapolis Center
Wed 03:43:21 PM 44.4256 -92.8094 233° Southwest 240 276 8,000 145 Climbing Minneapolis Center
Wed 03:44:23 PM 44.3853 -92.8822 232° Southwest 239 275 8,100  Climbing Minneapolis Center
Wed 03:45:24 PM 44.4047 -92.9447 294° West 214 246 8,000  Descending Minneapolis Center
Wed 03:46:26 PM 44.4294 -92.8714 65° Northeast 243 280 8,100  Climbing Minneapolis Center
Wed 03:47:28 PM 44.4161 -92.7761 101° East 249 287 8,000 48 Descending Minneapolis Center
Wed 03:48:30 PM 44.4344 -92.7639 25° Northeast 213 245 8,200  Climbing Minneapolis Center
Wed 03:49:31 PM 44.3950 -92.7100 136° Southeast 244 281 8,000 -49 Descending Minneapolis Center
Wed 03:50:33 PM 44.3906 -92.7008 124° Southeast 215 247 8,100 -49 Climbing Minneapolis Center
Wed 03:51:34 PM 44.4267 -92.6606 39° Northeast 209 241 7,900 -49 Descending Minneapolis Center
Wed 03:52:36 PM 44.4253 -92.6892 266° West 236 272 8,000  Climbing Minneapolis Center
Wed 03:53:38 PM 44.4453 -92.6281 65° Northeast 251 289 7,900 -48 Descending Minneapolis Center
Wed 03:54:40 PM 44.4181 -92.6497 210° Southwest 219 252 7,900 49 Level Minneapolis Center
Wed 03:55:41 PM 44.4719 -92.6400 North 196 226 8,000 49 Climbing Minneapolis Center
Wed 03:56:43 PM 44.4806 -92.6983 282° West 190 219 8,000  Level Minneapolis Center
Wed 03:57:45 PM 44.4736 -92.7606 261° West 123 142 8,000 49 Level Minneapolis Center
Wed 03:58:46 PM 44.4692 -92.7997 261° West 107 123 8,100 49 Climbing Minneapolis Center
Wed 03:59:48 PM 44.4636 -92.8669 263° West 168 193 8,100 -48 Level Minneapolis Center
Wed 04:00:50 PM 44.4075 -92.8792 189° South 232 267 8,000 -48 Descending Minneapolis Center
Wed 04:01:52 PM 44.3614 -92.8728 174° South 169 194 8,000  Level Minneapolis Center
Wed 04:02:53 PM 44.3119 -92.8653 174° South 180 207 8,000  Level Minneapolis Center
Wed 04:03:55 PM 44.2822 -92.7958 121° Southeast 227 261 8,000  Level Minneapolis Center
Wed 04:04:57 PM 44.2969 -92.8014 345° North 188 216 8,000  Level Minneapolis Center
Wed 04:05:59 PM 44.3214 -92.7364 62° Northeast 176 203 8,000 -49 Level Minneapolis Center
Wed 04:07:00 PM 44.3186 -92.6883 95° East 157 181 7,900 -98 Descending Minneapolis Center
Wed 04:08:02 PM 44.3142 -92.7025 246° West 91 105 7,800 48 Descending Minneapolis Center
Wed 04:09:04 PM 44.3497 -92.6692 34° Northeast 172 198 8,000 97 Climbing Minneapolis Center
Wed 04:10:06 PM 44.3728 -92.6122 60° Northeast 172 198 8,000  Level Minneapolis Center
Wed 04:11:08 PM 44.3933 -92.5856 43° Northeast 118 136 8,000 -49 Level Minneapolis Center
Wed 04:12:09 PM 44.3794 -92.6394 250° West 144 166 7,900  Descending Minneapolis Center
Wed 04:13:11 PM 44.3722 -92.7022 261° West 163 188 8,000 48 Climbing Minneapolis Center
Wed 04:14:13 PM 44.3650 -92.7519 259° West 135 155 8,000  Level Minneapolis Center
Wed 04:15:15 PM 44.3600 -92.7814 257° West 85 98 8,000  Level Minneapolis Center
Wed 04:16:17 PM 44.3294 -92.8231 224° Southwest 201 231 8,000  Level Minneapolis Center
Wed 04:17:19 PM 44.3397 -92.7742 74° East 169 194 8,000  Level Minneapolis Center
Wed 04:18:21 PM 44.3750 -92.7639 12° North 155 178 8,000  Level Minneapolis Center
Wed 04:19:22 PM 44.4019 -92.7508 19° North 89 102 8,000  Level Minneapolis Center
Wed 04:20:24 PM 44.4375 -92.7392 13° North 149 171 8,000 -48 Level Minneapolis Center
Wed 04:21:26 PM 44.4850 -92.7322 North 170 196 7,900 145 Descending Minneapolis Center
Wed 04:22:28 PM 44.5314 -92.7256 North 170 196 8,300 -387 Climbing Minneapolis Center
Wed 04:23:30 PM 44.5692 -92.7481 337° Northwest 162 186 7,100 -484 Descending Minneapolis Center
Wed 04:24:32 PM 44.5683 -92.8197 269° West 178 205 7,300 290 Climbing Minneapolis Center
Wed 04:25:34 PM 44.5244 -92.8381 197° South 200 230 7,700 -387 Climbing Minneapolis Center
Wed 04:26:36 PM 44.5253 -92.7500 89° East 234 269 6,500 -581 Descending Minneapolis Center
Wed 04:27:38 PM 44.5464 -92.6844 66° East 184 212 6,500 677 Level Minneapolis Center
Wed 04:28:40 PM 44.5047 -92.6486 148° Southeast 240 276 7,900 726 Climbing Minneapolis Center
Wed 04:29:42 PM 44.4378 -92.6681 192° South 246 283 8,000 48 Climbing Minneapolis Center
Wed 04:30:44 PM 44.3761 -92.6839 190° South 230 265 8,000  Level Minneapolis Center
Wed 04:31:46 PM 44.3078 -92.6758 175° South 237 273 8,000  Level Minneapolis Center
Wed 04:32:48 PM 44.3286 -92.6047 68° East 188 216 8,000  Level Minneapolis Center
Wed 04:33:50 PM 44.3586 -92.5494 53° Northeast 189 217 8,000  Level Minneapolis Center
Wed 04:34:52 PM 44.3897 -92.4914 53° Northeast 190 219 8,000  Level Minneapolis Center
Wed 04:35:54 PM 44.4211 -92.4350 52° Northeast 188 216 8,000 -48 Level Minneapolis Center
Wed 04:36:56 PM 44.4636 -92.3761 45° Northeast 179 206 7,900 -581 Descending Minneapolis Center
Wed 04:37:58 PM 44.5019 -92.3175 47° Northeast 212 244 6,800 -968 Descending Minneapolis Center
Wed 04:39:00 PM 44.5453 -92.2475 49° Northeast 221 254 5,900 -581 Descending Minneapolis Center
Wed 04:40:02 PM 44.5758 -92.1964 50° Northeast 175 201 5,600 -720 Descending Minneapolis Center
Wed 04:41:05 PM 44.6047 -92.1308 58° Northeast 181 208 4,400 -816 Descending Minneapolis Center
Wed 04:42:07 PM 44.6011 -92.0664 94° East 249 287 3,900 -242 Descending Minneapolis Center
Wed 04:43:09 PM 44.5714 -92.1181 231° Southwest 180 207 3,900  Level Minneapolis Center
Wed 04:44:11 PM 44.5786 -92.1878 278° West 184 212 3,900  Level Minneapolis Center
Wed 04:45:13 PM 44.6069 -92.2303 313° West 187 215 3,900  Level Minneapolis Center
Wed 04:46:15 PM 44.6189 -92.1578 77° East 208 239 3,900 -435 Level Minneapolis Center
Wed 04:47:17 PM 44.5892 -92.0808 118° Southeast 258 297 3,000 -484 Descending Minneapolis Center
Wed 04:48:19 PM 44.5714 -92.1478 250° West 182 209 2,900 -48 Descending Minneapolis Center
Wed 04:49:21 PM 44.5778 -92.1989 280° West 134 154 2,900 -145 Level Minneapolis Center
Wed 04:50:23 PM 44.5797 -92.2494 273° West 123 142 2,600 -144 Descending Minneapolis Center
Wed 04:51:26 PM 44.5811 -92.2981 272° West 125 144 2,600  Level Minneapolis Center
Wed 04:52:28 PM 44.5839 -92.3556 274° West 136 157 2,600 -290 Level Minneapolis Center
Wed 04:53:30 PM 44.5861 -92.4003 274° West 136 157 2,000 -484 Descending Minneapolis Center
Wed 04:54:32 PM 44.5867 -92.4439 271° West 126 145 1,600 -97 Descending Minneapolis Center
Wed 04:55:34 PM 44.5889 -92.4919 274° West 111 128 1,800 677 Climbing Minneapolis Center
Wed 04:56:36 PM 44.5950 -92.5719 276° West 200 230 3,000 581 Climbing Minneapolis Center
Wed 04:57:38 PM 44.6167 -92.6350 296° West 196 226 3,000  Level Minneapolis Center
Wed 04:58:40 PM 44.6489 -92.6836 313° West 191 220 3,000  Level Minneapolis Center
Wed 04:59:42 PM 44.6467 -92.7572 268° West 192 221 3,000 -48 Level Minneapolis Center
Wed 05:00:44 PM 44.5989 -92.7725 193° South 212 244 2,900  Descending Minneapolis Center
Wed 05:01:46 PM 44.5667 -92.7036 123° Southeast 209 241 3,000 48 Climbing Minneapolis Center
Wed 05:02:48 PM 44.5733 -92.6494 80° East 200 230 3,000  Level Minneapolis Center
Wed 05:03:51 PM 44.6142 -92.6739 337° Northwest 164 189 3,000  Level Minneapolis Center
Wed 05:04:53 PM 44.6439 -92.7156 315° West 168 193 3,000  Level Minneapolis Center
Wed 05:05:55 PM 44.6389 -92.7808 264° West 167 192 3,000  Level Minneapolis Center
Wed 05:06:57 PM 44.5936 -92.7389 147° Southeast 197 227 3,000  Level Minneapolis Center
Wed 05:07:59 PM 44.5964 -92.6639 87° East 199 229 3,000 -194 Level Minneapolis Center
Wed 05:09:01 PM 44.5928 -92.5956 94° East 198 228 2,600 -387 Descending Minneapolis Center

Login

Don't have an account? Register now (free) for customized features, flight alerts, and more!